createdAt,value
2023-03-15T00:01:30.683Z,12.90
2023-03-15T00:03:59.014Z,7.22
2023-03-15T00:06:33.938Z,28.80
2023-03-15T00:09:08.236Z,16.35
2023-03-15T00:11:38.563Z,8.45
2023-03-15T00:14:06.673Z,9.70
2023-03-15T00:16:35.126Z,15.30
2023-03-15T00:19:03.435Z,18.13
2023-03-15T00:21:36.290Z,7.72
2023-03-15T00:24:05.792Z,7.65
2023-03-15T00:26:34.321Z,5.03
2023-03-15T00:29:03.335Z,5.43
2023-03-15T00:31:32.070Z,5.07
2023-03-15T00:34:02.232Z,3.88
2023-03-15T00:36:34.973Z,5.38
2023-03-15T00:39:05.262Z,3.55
2023-03-15T00:41:37.376Z,5.57
2023-03-15T00:44:07.382Z,5.57
2023-03-15T00:46:35.753Z,3.63
2023-03-15T00:49:03.801Z,4.07
2023-03-15T00:51:33.520Z,3.25
2023-03-15T00:54:01.600Z,3.28
2023-03-15T00:56:30.800Z,4.68
2023-03-15T00:58:59.869Z,4.95
2023-03-15T01:01:29.931Z,3.40
2023-03-15T01:03:58.671Z,2.47
2023-03-15T01:06:29.503Z,3.42
2023-03-15T01:09:04.399Z,2.53
2023-03-15T01:11:32.581Z,4.88
2023-03-15T01:14:04.081Z,4.55
2023-03-15T01:16:33.188Z,6.97
2023-03-15T01:19:02.420Z,8.20
2023-03-15T01:21:31.862Z,4.43
2023-03-15T01:23:59.962Z,5.45
2023-03-15T01:26:29.518Z,3.47
2023-03-15T01:28:57.879Z,7.72
2023-03-15T01:31:30.464Z,5.30
2023-03-15T01:34:00.000Z,3.88
2023-03-15T01:36:32.155Z,5.95
2023-03-15T01:39:00.480Z,5.30
2023-03-15T01:41:37.487Z,5.82
2023-03-15T01:44:05.782Z,5.40
2023-03-15T01:46:34.990Z,4.38
2023-03-15T01:49:28.506Z,5.43
2023-03-15T01:52:08.944Z,11.98
2023-03-15T01:55:21.073Z,7.32
2023-03-15T01:58:10.554Z,7.18
2023-03-15T02:00:42.785Z,8.95
2023-03-15T02:03:26.985Z,12.95
2023-03-15T02:05:59.524Z,6.40
2023-03-15T02:08:51.964Z,6.15
2023-03-15T02:11:25.244Z,7.65
2023-03-15T02:13:56.880Z,7.63
2023-03-15T02:16:27.355Z,7.63
2023-03-15T02:19:00.464Z,8.98
2023-03-15T02:21:40.046Z,7.20
2023-03-15T02:24:23.390Z,5.72
2023-03-15T02:26:55.230Z,6.10
2023-03-15T02:29:26.121Z,7.45
2023-03-15T02:31:55.330Z,6.65
2023-03-15T02:34:28.630Z,6.15
2023-03-15T02:36:57.457Z,6.15
2023-03-15T02:39:28.980Z,5.57
2023-03-15T02:41:58.939Z,7.35
2023-03-15T02:44:35.863Z,8.98
2023-03-15T02:47:10.396Z,4.85
2023-03-15T02:49:43.922Z,7.03
2023-03-15T02:52:14.123Z,7.47
2023-03-15T02:54:45.541Z,11.50
2023-03-15T02:57:15.682Z,11.73
2023-03-15T02:59:46.661Z,10.65
2023-03-15T03:02:17.137Z,13.55
2023-03-15T03:04:47.079Z,7.43
2023-03-15T03:07:16.127Z,10.73
2023-03-15T03:09:49.563Z,15.43
2023-03-15T03:12:19.498Z,9.27
2023-03-15T03:14:50.742Z,11.57
2023-03-15T03:17:22.677Z,6.85
2023-03-15T03:19:52.993Z,8.68
2023-03-15T03:22:27.374Z,6.85
2023-03-15T03:24:57.203Z,7.65
2023-03-15T03:27:25.372Z,11.13
2023-03-15T03:29:56.464Z,11.30
2023-03-15T03:32:25.538Z,10.30
2023-03-15T03:34:56.750Z,8.20
2023-03-15T03:37:25.773Z,7.45
2023-03-15T03:40:00.357Z,10.45
2023-03-15T03:42:28.621Z,11.05
2023-03-15T03:44:59.123Z,7.18
2023-03-15T03:47:34.226Z,10.05
2023-03-15T03:50:02.668Z,9.10
2023-03-15T03:52:30.957Z,15.35
2023-03-15T03:55:07.420Z,10.38
2023-03-15T03:57:36.042Z,12.60
2023-03-15T04:00:09.899Z,7.80
2023-03-15T04:02:43.701Z,9.90
2023-03-15T04:05:15.445Z,7.80
2023-03-15T04:07:44.290Z,8.60
2023-03-15T04:10:15.008Z,8.95
2023-03-15T04:12:46.842Z,8.57
2023-03-15T04:15:17.007Z,6.93
2023-03-15T04:17:48.600Z,7.35
2023-03-15T04:20:22.399Z,10.13
2023-03-15T04:22:51.685Z,7.63
2023-03-15T04:25:50.404Z,9.60
2023-03-15T04:28:44.910Z,8.95
2023-03-15T04:31:38.281Z,7.53
2023-03-15T04:34:29.509Z,8.15
2023-03-15T04:37:13.301Z,11.77
2023-03-15T04:39:59.314Z,11.80
2023-03-15T04:42:40.148Z,10.30
2023-03-15T04:45:20.375Z,6.85
2023-03-15T04:48:11.711Z,13.32
2023-03-15T04:50:58.986Z,7.55
2023-03-15T04:53:45.683Z,9.98
2023-03-15T04:56:30.384Z,10.70
2023-03-15T04:59:22.933Z,13.40
2023-03-15T05:02:13.526Z,12.25
2023-03-15T05:04:58.839Z,9.20
2023-03-15T05:07:56.381Z,9.10
2023-03-15T05:10:43.518Z,9.00
2023-03-15T05:13:28.546Z,9.23
2023-03-15T05:16:12.851Z,10.32
2023-03-15T05:19:04.219Z,7.90
2023-03-15T05:22:04.696Z,8.32
2023-03-15T05:24:51.606Z,9.98
2023-03-15T05:27:46.568Z,7.53
2023-03-15T05:30:35.103Z,9.95
2023-03-15T05:33:23.070Z,15.82
2023-03-15T05:36:32.358Z,14.45
2023-03-15T05:39:34.775Z,13.90
2023-03-15T05:42:42.323Z,11.98
2023-03-15T05:45:22.644Z,11.43
2023-03-15T05:48:12.527Z,13.75
2023-03-15T05:51:06.044Z,14.48
2023-03-15T05:53:47.016Z,12.07
2023-03-15T05:56:35.827Z,10.13
2023-03-15T06:02:14.039Z,10.95
2023-03-15T06:04:56.114Z,12.98
2023-03-15T06:07:28.403Z,7.25
2023-03-15T06:09:56.744Z,8.55
2023-03-15T06:12:25.719Z,10.10
2023-03-15T06:14:54.254Z,8.35
2023-03-15T06:17:25.525Z,10.77
2023-03-15T06:19:55.297Z,14.00
2023-03-15T06:22:24.599Z,7.07
2023-03-15T06:24:58.303Z,7.10
2023-03-15T06:27:27.490Z,8.95
2023-03-15T06:29:58.502Z,8.45
2023-03-15T06:32:29.638Z,6.78
2023-03-15T06:34:58.597Z,6.18
2023-03-15T06:37:35.038Z,5.18
2023-03-15T06:40:08.023Z,6.78
2023-03-15T06:42:37.934Z,8.30
2023-03-15T06:45:06.999Z,9.48
2023-03-15T06:47:36.530Z,7.40
2023-03-15T06:50:06.847Z,7.70
2023-03-15T06:52:35.413Z,9.70
2023-03-15T06:55:03.745Z,9.35
2023-03-15T06:57:32.457Z,9.55
2023-03-15T07:00:00.271Z,8.70
2023-03-15T07:02:28.601Z,8.73
2023-03-15T07:04:56.920Z,13.02
2023-03-15T07:07:25.888Z,12.27
2023-03-15T07:09:56.115Z,7.70
2023-03-15T07:12:24.706Z,8.63
2023-03-15T07:14:52.971Z,7.60
2023-03-15T07:17:21.552Z,10.73
2023-03-15T07:19:56.267Z,9.15
2023-03-15T07:22:26.617Z,14.23
2023-03-15T07:24:55.020Z,8.23
2023-03-15T07:27:23.651Z,12.63
2023-03-15T07:29:51.909Z,6.53
2023-03-15T07:32:20.511Z,11.52
2023-03-15T07:34:48.841Z,12.13
2023-03-15T07:37:17.880Z,9.05
2023-03-15T07:39:46.766Z,11.95
2023-03-15T07:42:17.790Z,12.95
2023-03-15T07:45:05.606Z,11.27
2023-03-15T07:47:37.962Z,12.68
2023-03-15T07:50:06.955Z,10.07
2023-03-15T07:52:35.726Z,11.10
2023-03-15T07:55:06.420Z,13.27
2023-03-15T07:57:44.372Z,9.53
2023-03-15T08:00:15.048Z,12.60
2023-03-15T08:02:48.735Z,12.50
2023-03-15T08:05:19.164Z,12.35
2023-03-15T08:07:50.131Z,8.48
2023-03-15T08:10:19.067Z,8.57
2023-03-15T08:12:47.772Z,14.10
2023-03-15T08:15:16.366Z,11.88
2023-03-15T08:17:50.625Z,25.67
2023-03-15T08:20:19.543Z,26.85
2023-03-15T08:22:48.643Z,69.35
2023-03-15T08:25:19.734Z,45.85
2023-03-15T08:27:50.316Z,23.58
2023-03-15T08:30:21.020Z,37.20
2023-03-15T08:32:51.358Z,50.70
2023-03-15T08:35:21.772Z,56.65
2023-03-15T08:37:52.636Z,50.40
2023-03-15T08:40:25.223Z,98.40
2023-03-15T08:42:54.735Z,108.03
2023-03-15T08:45:24.426Z,46.13
2023-03-15T08:48:00.106Z,78.43
2023-03-15T08:50:30.087Z,141.48
2023-03-15T08:52:58.767Z,52.30
2023-03-15T08:55:27.558Z,52.13
2023-03-15T08:57:56.030Z,29.83
2023-03-15T09:00:25.659Z,34.95
2023-03-15T09:02:55.278Z,47.03
2023-03-15T09:05:25.614Z,12.63
2023-03-15T09:07:54.621Z,15.18
2023-03-15T09:10:22.730Z,23.98
2023-03-15T09:12:54.043Z,15.10
2023-03-15T09:15:22.430Z,32.03
2023-03-15T09:17:51.822Z,19.67
2023-03-15T09:20:25.571Z,30.05
2023-03-15T09:22:55.819Z,35.42
2023-03-15T09:25:24.893Z,32.55
2023-03-15T09:27:54.791Z,70.07
2023-03-15T09:30:22.733Z,51.53
2023-03-15T09:32:51.492Z,21.90
2023-03-15T09:35:20.889Z,32.55
2023-03-15T09:37:51.110Z,18.42
2023-03-15T09:40:28.335Z,23.13
2023-03-15T09:43:09.135Z,19.27
2023-03-15T09:45:53.020Z,11.38
2023-03-15T09:49:05.087Z,10.75
2023-03-15T09:51:48.223Z,12.07
2023-03-15T09:54:19.475Z,12.85
2023-03-15T09:57:14.847Z,10.13
2023-03-15T09:59:47.467Z,9.83
2023-03-15T10:02:31.734Z,12.77
2023-03-15T10:05:09.910Z,14.20
2023-03-15T10:07:38.384Z,10.25
2023-03-15T10:10:22.409Z,11.07
2023-03-15T10:13:06.310Z,11.95
2023-03-15T10:15:56.722Z,13.25
2023-03-15T10:18:55.801Z,25.38
2023-03-15T10:21:33.539Z,14.60
2023-03-15T10:24:05.929Z,15.52
2023-03-15T10:26:38.832Z,7.32
2023-03-15T10:29:16.731Z,9.68
2023-03-15T10:31:50.160Z,10.23
2023-03-15T10:34:18.393Z,6.93
2023-03-15T10:36:54.623Z,9.70
2023-03-15T10:39:25.018Z,8.90
2023-03-15T10:41:53.997Z,5.75
2023-03-15T10:44:25.080Z,8.75
2023-03-15T10:47:23.763Z,6.88
2023-03-15T10:49:58.448Z,10.63
2023-03-15T10:52:27.246Z,7.28
2023-03-15T10:55:03.950Z,8.95
2023-03-15T10:57:45.943Z,7.88
2023-03-15T11:00:32.497Z,10.35
2023-03-15T11:03:07.075Z,14.77
2023-03-15T11:05:48.912Z,15.07
2023-03-15T11:08:21.604Z,9.13
2023-03-15T11:10:58.290Z,15.68
2023-03-15T11:13:29.541Z,8.68
2023-03-15T11:16:04.303Z,7.82
2023-03-15T11:19:03.806Z,11.50
2023-03-15T11:21:33.859Z,10.50
2023-03-15T11:24:04.494Z,11.55
2023-03-15T11:26:38.052Z,4.45
2023-03-15T11:29:15.116Z,6.07
2023-03-15T11:31:45.405Z,7.18
2023-03-15T11:34:29.569Z,9.00
2023-03-15T11:37:08.553Z,7.43
2023-03-15T11:39:45.472Z,10.75
2023-03-15T11:42:38.724Z,9.25
2023-03-15T11:45:34.356Z,7.13
2023-03-15T11:48:36.539Z,7.75
2023-03-15T11:51:05.960Z,5.43
2023-03-15T11:53:42.711Z,6.50
2023-03-15T11:56:20.765Z,7.20
2023-03-15T11:59:02.206Z,6.72
2023-03-15T12:01:31.180Z,13.10
2023-03-15T12:04:27.225Z,10.32
2023-03-15T12:07:03.879Z,8.63
2023-03-15T12:09:36.479Z,8.82
2023-03-15T12:12:25.073Z,9.45
2023-03-15T12:15:02.473Z,10.07
2023-03-15T12:17:57.495Z,14.35
2023-03-15T12:20:44.953Z,6.75
2023-03-15T12:23:19.707Z,12.68
2023-03-15T12:26:05.654Z,8.13
2023-03-15T12:32:03.042Z,5.68
2023-03-15T12:34:42.602Z,5.72
2023-03-15T12:37:18.105Z,9.50
2023-03-15T12:39:51.024Z,7.20
2023-03-15T12:42:48.479Z,10.18
2023-03-15T12:45:19.599Z,9.73
2023-03-15T12:47:52.185Z,5.78
2023-03-15T12:50:43.985Z,8.82
2023-03-15T12:53:31.092Z,9.23
2023-03-15T12:56:17.864Z,17.48
2023-03-15T13:01:25.842Z,9.57
2023-03-15T13:03:58.370Z,10.85
2023-03-15T13:06:27.305Z,10.43
2023-03-15T13:09:21.339Z,8.38
2023-03-15T13:12:12.614Z,22.88
2023-03-15T13:14:47.236Z,10.55
2023-03-15T13:17:27.352Z,9.30
2023-03-15T13:20:10.026Z,9.02
2023-03-15T13:22:55.457Z,11.60
2023-03-15T13:25:42.276Z,6.35
2023-03-15T13:28:37.497Z,8.85
2023-03-15T13:31:53.740Z,11.50
2023-03-15T13:34:28.862Z,8.52
2023-03-15T13:36:59.129Z,9.75
2023-03-15T13:39:33.221Z,12.77
2023-03-15T13:42:02.469Z,13.50
2023-03-15T13:44:32.054Z,11.18
2023-03-15T13:47:01.051Z,6.60
2023-03-15T13:49:33.981Z,16.30
2023-03-15T13:52:04.095Z,20.45
2023-03-15T13:54:34.784Z,17.33
2023-03-15T13:57:12.438Z,8.23
2023-03-15T13:59:55.244Z,5.20
2023-03-15T14:02:33.470Z,4.38
2023-03-15T14:05:09.432Z,16.40
2023-03-15T14:07:45.465Z,12.88
2023-03-15T14:10:14.464Z,59.97
2023-03-15T14:12:43.872Z,7.25
2023-03-15T14:15:19.822Z,16.98
2023-03-15T14:18:02.085Z,8.48
2023-03-15T14:20:36.077Z,14.75
2023-03-15T14:23:09.285Z,13.27
2023-03-15T14:25:38.148Z,8.25
2023-03-15T14:28:11.463Z,5.75
2023-03-15T14:30:40.629Z,9.23
2023-03-15T14:33:23.796Z,24.55
2023-03-15T14:35:54.828Z,15.30
2023-03-15T14:38:24.323Z,13.13
2023-03-15T14:40:53.927Z,6.82
2023-03-15T14:43:21.953Z,8.48
2023-03-15T14:45:50.782Z,63.53
2023-03-15T14:48:25.031Z,7.80
2023-03-15T14:50:55.598Z,11.52
2023-03-15T14:53:26.270Z,9.68
2023-03-15T14:55:54.717Z,6.75
2023-03-15T14:58:23.353Z,7.30
2023-03-15T15:00:54.361Z,36.00
2023-03-15T15:03:38.765Z,42.25
2023-03-15T15:06:14.451Z,15.43
2023-03-15T15:08:47.221Z,15.37
2023-03-15T15:11:16.362Z,44.28
2023-03-15T15:13:47.453Z,16.10
2023-03-15T15:16:17.558Z,25.42
2023-03-15T15:18:47.290Z,10.27
2023-03-15T15:21:30.653Z,20.75
2023-03-15T15:24:01.360Z,8.50
2023-03-15T15:26:32.545Z,16.30
2023-03-15T15:29:01.125Z,21.17
2023-03-15T15:31:33.816Z,19.30
2023-03-15T15:34:02.262Z,158.45
2023-03-15T15:36:36.437Z,21.88
2023-03-15T15:39:07.140Z,45.15
2023-03-15T15:41:36.075Z,154.63
2023-03-15T15:44:04.533Z,17.50
2023-03-15T15:46:33.116Z,23.05
2023-03-15T15:49:01.676Z,126.78
2023-03-15T15:51:31.895Z,37.28
2023-03-15T15:54:01.478Z,12.18
2023-03-15T15:56:37.068Z,12.95
2023-03-15T15:59:05.800Z,48.60
2023-03-15T16:01:36.607Z,16.90
2023-03-15T16:04:07.288Z,122.00
2023-03-15T16:06:37.166Z,19.48
2023-03-15T16:09:06.955Z,28.08
2023-03-15T16:11:36.350Z,15.63
2023-03-15T16:14:04.643Z,20.67
2023-03-15T16:16:33.367Z,22.92
2023-03-15T16:19:01.575Z,14.48
2023-03-15T16:21:34.796Z,18.58
2023-03-15T16:24:08.451Z,25.38
2023-03-15T16:26:39.377Z,26.15
2023-03-15T16:29:16.874Z,15.85
2023-03-15T16:31:46.549Z,40.20
2023-03-15T16:34:17.073Z,27.98
2023-03-15T16:36:49.997Z,45.00
2023-03-15T16:39:18.489Z,27.58
2023-03-15T16:41:47.576Z,23.83
2023-03-15T16:44:18.118Z,38.90
2023-03-15T16:46:47.933Z,48.63
2023-03-15T16:49:16.264Z,90.47
2023-03-15T16:51:50.059Z,47.15
2023-03-15T16:54:34.382Z,70.90
2023-03-15T16:57:36.803Z,74.57
2023-03-15T17:00:11.854Z,113.95
2023-03-15T17:02:40.620Z,59.97
2023-03-15T17:05:08.884Z,65.40
2023-03-15T17:07:39.607Z,67.55
2023-03-15T17:10:12.156Z,69.75
2023-03-15T17:12:42.886Z,62.33
2023-03-15T17:15:11.685Z,84.05
2023-03-15T17:17:40.287Z,90.18
2023-03-15T17:20:13.011Z,116.13
2023-03-15T17:22:42.390Z,152.95
2023-03-15T17:25:10.744Z,165.55
2023-03-15T17:27:41.243Z,169.65
2023-03-15T17:30:19.565Z,302.63
2023-03-15T17:32:48.749Z,217.80
2023-03-15T17:35:17.812Z,173.75
2023-03-15T17:37:46.517Z,136.10
2023-03-15T17:40:26.763Z,160.00
2023-03-15T17:42:56.141Z,127.38
2023-03-15T17:45:28.016Z,125.53
2023-03-15T17:47:56.777Z,104.15
2023-03-15T17:50:26.418Z,106.53
2023-03-15T17:52:57.613Z,114.85
2023-03-15T17:55:27.322Z,142.60
2023-03-15T17:57:56.725Z,166.70
2023-03-15T18:00:25.613Z,204.38
2023-03-15T18:02:56.214Z,177.15
2023-03-15T18:05:26.751Z,147.32
2023-03-15T18:08:00.060Z,178.20
2023-03-15T18:10:43.191Z,146.38
2023-03-15T18:16:27.353Z,142.52
2023-03-15T18:18:56.472Z,118.55
2023-03-15T18:21:29.678Z,110.45
2023-03-15T18:23:59.154Z,121.80
2023-03-15T18:26:27.564Z,117.55
2023-03-15T18:28:56.404Z,111.93
2023-03-15T18:31:25.480Z,176.48
2023-03-15T18:33:54.385Z,143.73
2023-03-15T18:36:22.442Z,126.20
2023-03-15T18:38:51.160Z,110.93
2023-03-15T18:41:21.077Z,117.45
2023-03-15T18:43:50.338Z,91.32
2023-03-15T18:46:19.847Z,99.53
2023-03-15T18:48:50.026Z,104.47
2023-03-15T18:51:18.574Z,182.88
2023-03-15T18:53:47.198Z,366.38
2023-03-15T18:56:19.897Z,410.15
2023-03-15T18:58:49.224Z,426.27
2023-03-15T19:01:18.342Z,434.05
2023-03-15T19:03:46.836Z,430.33
2023-03-15T19:06:15.536Z,569.30
2023-03-15T19:08:44.301Z,682.33
2023-03-15T19:11:12.610Z,677.38
2023-03-15T19:13:41.286Z,663.45
2023-03-15T19:16:09.647Z,572.53
2023-03-15T19:18:41.392Z,439.70
2023-03-15T19:21:10.153Z,257.67
2023-03-15T19:23:38.795Z,174.35
2023-03-15T19:26:07.105Z,115.65
2023-03-15T19:28:37.047Z,93.35
2023-03-15T19:31:05.480Z,88.70
2023-03-15T19:33:34.939Z,93.20
2023-03-15T19:36:03.403Z,71.55
2023-03-15T19:38:33.148Z,76.82
2023-03-15T19:41:05.378Z,80.32
2023-03-15T19:43:34.399Z,87.75
2023-03-15T19:46:04.448Z,94.20
2023-03-15T19:48:33.127Z,84.32
2023-03-15T19:51:01.725Z,102.18
2023-03-15T19:53:30.533Z,103.20
2023-03-15T19:55:59.219Z,112.72
2023-03-15T19:58:28.174Z,226.13
2023-03-15T20:00:57.413Z,328.17
2023-03-15T20:03:26.220Z,375.02
2023-03-15T20:05:54.552Z,342.25
2023-03-15T20:08:25.307Z,359.70
2023-03-15T20:11:00.189Z,369.00
2023-03-15T20:13:28.904Z,293.35
2023-03-15T20:15:57.542Z,241.00
2023-03-15T20:18:26.268Z,275.55
2023-03-15T20:20:54.872Z,249.23
2023-03-15T20:23:23.533Z,542.30
2023-03-15T20:25:51.907Z,284.83
2023-03-15T20:28:21.034Z,165.45
2023-03-15T20:30:49.268Z,189.95
2023-03-15T20:33:17.816Z,306.95
2023-03-15T20:35:46.792Z,252.32
2023-03-15T20:38:15.529Z,166.63
2023-03-15T20:40:44.427Z,205.90
2023-03-15T20:43:15.751Z,221.55
2023-03-15T20:45:44.054Z,466.67
2023-03-15T20:48:12.857Z,519.58
2023-03-15T20:50:41.888Z,428.80
2023-03-15T20:53:10.481Z,215.07
2023-03-15T20:55:46.800Z,187.80
2023-03-15T20:58:16.744Z,185.75
2023-03-15T21:00:45.791Z,192.15
2023-03-15T21:03:15.303Z,240.77
2023-03-15T21:05:45.190Z,279.75
2023-03-15T21:08:14.517Z,253.40
2023-03-15T21:10:43.134Z,271.52
2023-03-15T21:13:13.761Z,279.00
2023-03-15T21:15:46.412Z,277.42
2023-03-15T21:18:16.691Z,283.98
2023-03-15T21:20:45.229Z,323.13
2023-03-15T21:23:13.622Z,347.13
2023-03-15T21:25:42.260Z,329.23
2023-03-15T21:28:11.115Z,223.80
2023-03-15T21:30:43.094Z,276.05
2023-03-15T21:33:15.874Z,287.45
2023-03-15T21:35:45.026Z,257.23
2023-03-15T21:38:15.395Z,347.17
2023-03-15T21:40:46.602Z,305.55
2023-03-15T21:43:15.632Z,348.38
2023-03-15T21:45:45.471Z,331.20
2023-03-15T21:48:13.936Z,307.20
2023-03-15T21:50:43.009Z,264.83
2023-03-15T21:53:12.356Z,208.23
2023-03-15T21:55:40.435Z,181.98
2023-03-15T21:58:09.835Z,215.00
2023-03-15T22:00:38.276Z,191.20
2023-03-15T22:03:06.639Z,177.77
2023-03-15T22:05:35.626Z,149.90
2023-03-15T22:08:04.169Z,152.10
2023-03-15T22:10:32.490Z,139.95
2023-03-15T22:13:00.903Z,103.85
2023-03-15T22:15:29.342Z,91.57
2023-03-15T22:17:57.826Z,73.97
2023-03-15T22:20:27.284Z,68.82
2023-03-15T22:22:55.751Z,62.78
2023-03-15T22:25:24.422Z,57.50
2023-03-15T22:27:53.326Z,49.05
2023-03-15T22:30:22.208Z,43.88
2023-03-15T22:32:55.164Z,40.55
2023-03-15T22:35:24.425Z,38.90
2023-03-15T22:37:57.957Z,108.63
2023-03-15T22:40:29.343Z,72.90
2023-03-15T22:42:59.441Z,80.05
2023-03-15T22:45:33.064Z,55.25
2023-03-15T22:48:05.732Z,72.72
2023-03-15T22:50:36.925Z,87.25
2023-03-15T22:53:08.118Z,85.20
2023-03-15T22:55:39.378Z,107.40
2023-03-15T22:58:08.487Z,82.68
2023-03-15T23:00:41.189Z,48.85
2023-03-15T23:03:10.181Z,170.73
2023-03-15T23:05:42.210Z,102.82
2023-03-15T23:08:14.278Z,62.33
2023-03-15T23:10:47.291Z,62.38
2023-03-15T23:13:20.365Z,98.80
2023-03-15T23:15:54.376Z,111.88
2023-03-15T23:18:23.621Z,69.03
2023-03-15T23:20:53.888Z,53.00
2023-03-15T23:23:27.390Z,46.78
2023-03-15T23:26:00.579Z,42.38
2023-03-15T23:28:39.458Z,46.90
2023-03-15T23:31:13.153Z,46.97
2023-03-15T23:34:07.342Z,56.28
2023-03-15T23:37:05.947Z,48.40
2023-03-15T23:40:02.276Z,47.50
2023-03-15T23:43:11.528Z,50.88
2023-03-15T23:46:36.714Z,45.35
2023-03-15T23:53:51.345Z,39.63
2023-03-15T23:56:49.648Z,62.78
2023-03-15T23:59:38.184Z,36.95
